Urb El Guayabal, Puerto Rico
Current Conditions -  °F | °C
As of 3:50 PM on Wednesday 28 Jan 2015 (Local Time) from TJBQ Reporting Station
Scattered Clouds Scattered Clouds  
Wind Chill: 79°   Ceiling: Unl
Heat Index: 81°   Visibility: 10mi
Dew Point: 68°   Wind: 5mph
Humidity: 69%   Direction: 10°N
Pressure: 29.97"   Gusts: NA
Location:  18.3413°N, 66.991°W
Report Text: TJBQ 281950Z 01004KT 10SM SCT060 26/20 A2997 RMK RWY08 ATIS R
Loading
Personal Weather Stations






























Interactive Weather Map New forecast layout! Learn more

10-Day Weather Forecast

Advertisements
Track Severe Weather on mobile